• Join FlightAware (Why Join?)
  • Login
  • US Flag 
10:46AM EDT


 

Airport Tracker/Info


-or-


 

Live Flight TrackerFlight Track Log ✈ SKW6492 ✈ 12-May-2013 ✈ KDEN - KCOD

Flight Track Log - Related Links

Times and Time Zones

All times are in EDT time to prevent confusion due to time zone crossing. See the SKW6492 flight status page for this flight to view local times or setup timezone preferences in your user account.

Time Position Orientation Groundspeed Altitude Reporting Facility
EDT Latitude Longitude Course Direction KTS MPH feet Rate Location/Type
09:34PM 39.9167 -104.6833 346° North 197 227 6,400  Level Denver TRACON
09:35PM 39.9833 -104.6667 11° North 237 273 8,700 1,980 Climbing Denver TRACON
09:36PM 40.1486 -104.7662 344° North  Level FlightAware Approximate
09:36PM 40.0500 -104.6667 360° North 277 319 10,400  Level Denver TRACON
09:37PM 40.2489 -104.7963 347° North  Level FlightAware Approximate
09:37PM 40.1333 -104.6833 351° North 273 314 12,800  Level Denver TRACON
09:38PM 40.3491 -104.8275 346° North  Level FlightAware Approximate
09:38PM 40.2000 -104.7000 349° North 262 302 14,300  Level Denver TRACON
09:39PM 40.4489 -104.8607 346° North  Level FlightAware Approximate
09:39PM 40.3072 -104.7242 350° North 330 380 15,800  Level Denver Center
09:40PM 40.4033 -104.7500 348° North 328 377 17,500 1,500 Climbing Denver Center
09:41PM 40.4961 -104.7753 348° North 341 392 18,900 1,260 Climbing Denver Center
09:42PM 40.5883 -104.8011 348° North 341 392 20,200 1,200 Climbing Denver Center
09:43PM 40.6922 -104.8275 349° North 354 407 21,400 960 Climbing Denver Center
09:44PM 40.7819 -104.8528 348° North 347 399 22,200 900 Climbing Denver Center
09:45PM 40.8517 -104.9786 306° West 380 437 23,300 1,020 Climbing Denver Center
09:46PM 40.9094 -105.0878 305° West 375 432 24,300 900 Climbing Denver Center
09:47PM 40.9681 -105.1989 305° West 382 440 25,200 720 Climbing Denver Center
09:48PM 41.0372 -105.3278 305° West 383 441 25,900 360 Climbing Denver Center
09:49PM 41.0961 -105.4417 304° West 390 449 26,000  Climbing Denver Center
09:50PM 41.1683 -105.5828 304° West 409 471 26,000  Level Denver Center
09:51PM 41.2458 -105.6894 314° West 421 484 26,000  Level Denver Center
09:52PM 41.3506 -105.7897 324° Northwest 416 479 26,000  Level Denver Center
09:53PM 41.4419 -105.8767 325° Northwest 420 483 26,000  Level Denver Center
09:54PM 41.5472 -105.9783 324° Northwest 419 482 26,000  Level Denver Center
09:55PM 41.6369 -106.0647 324° Northwest 416 479 26,000  Level Denver Center
09:56PM 41.7269 -106.1519 324° Northwest 417 480 26,000  Level Denver Center
09:57PM 41.8186 -106.2408 324° Northwest 418 481 26,000  Level Denver Center
09:58PM 41.9250 -106.3442 324° Northwest 422 486 26,000  Level Denver Center
09:59PM 42.0308 -106.4481 324° Northwest 422 486 26,000  Level Denver Center
10:00PM 42.1233 -106.5397 324° Northwest 414 476 26,000  Level Denver Center
10:01PM 42.2133 -106.6286 324° Northwest 419 482 26,000  Level Denver Center
10:03PM 42.3203 -106.7342 324° Northwest 426 490 26,000  Level Denver Center
10:04PM 42.4392 -106.8528 324° Northwest 426 490 26,000  Level Denver Center
10:05PM 42.5319 -106.9461 323° Northwest 425 489 26,000  Level Denver Center
10:06PM 42.6358 -107.0497 324° Northwest 424 488 26,000  Level Denver Center
10:07PM 42.7294 -107.1328 327° Northwest 421 484 26,000  Level Denver Center
10:07PM 42.7958 -107.1847 330° Northwest 420 483 26,000  Level Salt Lake Center
10:08PM 42.8911 -107.2631 329° Northwest 419 482 26,000  Level Salt Lake Center
10:09PM 42.9486 -107.3081 330° Northwest 422 486 26,000  Level Denver Center
10:10PM 43.0431 -107.3878 328° Northwest 418 481 26,000  Level Denver Center
10:11PM 43.1394 -107.4639 330° Northwest 418 481 26,000  Level Denver Center
10:11PM 43.2022 -107.5181 328° Northwest 418 481 26,000  Level Salt Lake Center
10:12PM 43.2986 -107.5914 331° Northwest 415 478 26,000  Level Salt Lake Center
10:13PM 43.4094 -107.6831 329° Northwest 416 479 26,000  Level Salt Lake Center
10:15PM 43.5058 -107.7639 329° Northwest 421 484 26,000  Level Salt Lake Center
10:16PM 43.6175 -107.8586 328° Northwest 423 487 26,000  Level Salt Lake Center
10:17PM 43.7131 -107.9372 329° Northwest 419 482 26,000  Level Salt Lake Center
10:18PM 43.8089 -108.0192 328° Northwest 421 484 26,000  Level Salt Lake Center
10:19PM 43.9219 -108.1131 329° Northwest 424 488 26,000 -360 Level Salt Lake Center
10:20PM 44.0186 -108.1942 329° Northwest 423 487 25,300 -2,040 Descending Salt Lake Center
10:21PM 44.1308 -108.2881 329° Northwest 421 484 21,900 -3,120 Descending Salt Lake Center
10:22PM 44.2206 -108.3644 329° Northwest 402 463 19,000 -2,760 Descending Salt Lake Center
10:23PM 44.3067 -108.4389 328° Northwest 385 443 16,300 -2,520 Descending Salt Lake Center
10:24PM 44.4086 -108.5256 329° Northwest 382 440 13,900 -2,220 Descending Salt Lake Center
10:25PM 44.4953 -108.6003 328° Northwest 382 440 11,900 -1,860 Descending Salt Lake Center
10:26PM 44.5744 -108.6664 329° Northwest 366 421 10,200 -1,440 Descending Salt Lake Center
10:27PM 44.6406 -108.7419 321° Northwest 306 352 9,000 -1,380 Descending Salt Lake Center
10:28PM 44.6292 -108.8328 260° West 271 312 7,500 -900 Descending Salt Lake Center
10:29PM 44.5883 -108.9044 231° Southwest 228 262 7,200 -660 Descending Salt Lake Center
10:30PM 44.5575 -108.9589 232° Southwest 204 235 6,200 -1,020 Descending Salt Lake Center